Time;durP1;ratioP1;P1;durP2;ratioP2;P2;SDS_P1;SDS_P2;PMS_P1;PMS_P2;Temp;Humidity;BMP_temperature;BMP_pressure;BME280_temperature;BME280_humidity;BME280_pressure;Samples;Min_cycle;Max_cycle;Signal;HPM_P1;HPM_P2
2021/09/10 08:39:30;;;;;;;11.70;6.25;;;23.30;72.50;;;;;;4993622;27;20423;-66
2021/09/10 08:41:56;;;;;;;6.88;5.45;;;20.00;87.20;;;;;;4987893;28;20048;-65
2021/09/10 08:44:23;;;;;;;10.40;4.97;;;19.60;89.30;;;;;;5081871;28;20058;-65
2021/09/10 08:46:50;;;;;;;12.65;6.00;;;19.50;89.20;;;;;;5072804;28;20555;-66
2021/09/10 08:49:17;;;;;;;10.15;5.32;;;19.50;89.20;;;;;;5085577;28;20131;-66
2021/09/10 08:51:44;;;;;;;8.95;5.57;;;19.60;89.00;;;;;;5054618;28;20428;-67
2021/09/10 08:54:11;;;;;;;10.30;4.90;;;19.50;89.30;;;;;;5090712;28;20076;-67
2021/09/10 08:56:38;;;;;;;7.75;4.95;;;19.50;88.70;;;;;;5105952;28;20072;-67
2021/09/10 08:59:20;;;;;;;12.32;5.05;;;19.60;88.60;;;;;;5106832;28;20123;-67
2021/09/10 09:01:54;;;;;;;9.00;4.45;;;19.60;88.30;;;;;;5104227;28;20466;-67
2021/09/10 09:04:22;;;;;;;5.60;4.30;;;19.60;87.70;;;;;;5106837;28;20059;-67
2021/09/10 09:06:50;;;;;;;9.48;4.20;;;19.70;87.90;;;;;;5105441;28;20072;-67
2021/09/10 09:09:37;;;;;;;7.60;4.07;;;19.80;87.40;;;;;;5088233;28;20132;-67
2021/09/10 09:12:14;;;;;;;8.50;4.05;;;19.70;88.00;;;;;;5106346;28;20079;-67
2021/09/10 09:15:00;;;;;;;7.93;4.70;;;20.00;87.10;;;;;;5088312;28;20509;-66
2021/09/10 09:17:35;;;;;;;6.32;3.40;;;20.10;86.50;;;;;;5101756;28;20076;-67
2021/09/10 09:20:15;;;;;;;11.43;4.30;;;20.10;86.50;;;;;;5103563;28;20052;-67
2021/09/10 09:22:54;;;;;;;6.82;3.55;;;20.10;86.40;;;;;;5104090;28;20131;-66
2021/09/10 09:25:44;;;;;;;5.15;3.40;;;20.00;85.70;;;;;;5087100;28;20412;-66
2021/09/10 09:28:20;;;;;;;7.00;3.85;;;19.90;86.50;;;;;;5069875;28;20468;-67
2021/09/10 09:30:52;;;;;;;7.22;4.10;;;19.70;86.80;;;;;;5085330;28;20530;-65
2021/09/10 09:33:19;;;;;;;8.65;4.30;;;19.70;87.30;;;;;;5071638;28;20406;-67
2021/09/10 09:35:46;;;;;;;9.73;4.70;;;19.60;87.80;;;;;;5104208;28;20083;-67
2021/09/10 09:38:17;;;;;;;7.07;3.92;;;19.50;88.60;;;;;;5087968;28;20462;-66
2021/09/10 09:40:44;;;;;;;6.03;4.13;;;19.50;88.50;;;;;;5089150;28;20538;-67
2021/09/10 09:43:31;;;;;;;6.85;4.22;;;19.70;88.20;;;;;;5097580;28;20090;-66
2021/09/10 09:45:59;;;;;;;8.68;3.58;;;19.90;87.70;;;;;;5086030;28;20070;-67
2021/09/10 09:48:27;;;;;;;9.63;3.90;;;19.80;87.50;;;;;;5104779;28;20041;-67
2021/09/10 09:50:56;;;;;;;7.70;3.80;;;19.90;87.40;;;;;;5088504;28;20041;-67
2021/09/10 09:53:23;;;;;;;9.63;3.72;;;20.10;86.90;;;;;;5074641;28;20084;-65
2021/09/10 09:55:50;;;;;;;7.03;3.85;;;20.30;86.40;;;;;;5090013;28;20438;-66
2021/09/10 09:58:17;;;;;;;10.25;3.50;;;20.60;83.90;;;;;;5091004;28;20072;-65
2021/09/10 10:00:45;;;;;;;6.38;3.83;;;20.90;83.30;;;;;;5070271;28;20052;-66
2021/09/10 10:03:12;;;;;;;8.15;3.50;;;21.20;81.70;;;;;;5033780;28;20040;-65
2021/09/10 10:06:03;;;;;;;7.88;3.40;;;21.30;80.80;;;;;;5068635;28;20049;-65
2021/09/10 10:08:45;;;;;;;6.10;3.20;;;21.10;81.50;;;;;;5072809;28;20052;-66
2021/09/10 10:11:17;;;;;;;6.55;3.30;;;21.40;80.60;;;;;;5076031;28;20095;-65
2021/09/10 10:13:44;;;;;;;6.93;2.90;;;21.10;81.90;;;;;;5075360;28;20136;-65
2021/09/10 10:16:37;;;;;;;5.72;2.88;;;21.60;81.80;;;;;;5054186;28;20049;-66
2021/09/10 10:19:05;;;;;;;5.10;2.83;;;21.60;79.40;;;;;;5091789;28;20052;-65
2021/09/10 10:22:37;;;;;;;5.57;2.65;;;22.20;78.10;;;;;;4893094;27;1292747;-69
2021/09/10 10:25:05;;;;;;;6.05;2.45;;;23.30;75.70;;;;;;5049850;28;20140;-69
2021/09/10 10:27:38;;;;;;;5.15;2.33;;;22.90;76.50;;;;;;5033358;28;20080;-69
2021/09/10 10:30:15;;;;;;;3.35;2.10;;;22.80;76.80;;;;;;5042962;28;20072;-69
2021/09/10 10:32:47;;;;;;;4.68;2.35;;;22.10;78.10;;;;;;5031654;28;20139;-69
2021/09/10 10:35:20;;;;;;;5.07;2.10;;;21.20;81.60;;;;;;5040502;28;20057;-66
2021/09/10 10:38:02;;;;;;;3.83;2.20;;;20.50;85.00;;;;;;5050007;28;20060;-69
2021/09/10 10:40:43;;;;;;;4.90;2.75;;;20.10;87.00;;;;;;5050969;28;20438;-70
2021/09/10 10:43:22;;;;;;;3.97;3.00;;;20.10;87.30;;;;;;5031745;28;20464;-71
2021/09/10 10:45:49;;;;;;;5.28;3.20;;;20.20;86.50;;;;;;5049819;28;20049;-69
2021/09/10 10:48:34;;;;;;;5.22;2.90;;;20.20;86.50;;;;;;5049600;28;20485;-69
2021/09/10 10:51:21;;;;;;;4.03;2.75;;;20.20;86.50;;;;;;5029834;28;20107;-68
2021/09/10 10:53:47;;;;;;;6.38;4.15;;;19.90;88.40;;;;;;5000929;28;20053;-72
2021/09/10 10:56:32;;;;;;;6.95;3.22;;;21.10;85.70;;;;;;5049399;28;20077;-66
2021/09/10 10:59:14;;;;;;;4.75;3.20;;;22.20;80.40;;;;;;5050449;28;20464;-74
2021/09/10 11:02:21;;;;;;;5.87;3.57;;;23.10;75.10;;;;;;4926166;28;70000;-73
2021/09/10 11:04:52;;;;;;;7.68;3.10;;;23.80;72.00;;;;;;5052746;28;20057;-54
2021/09/10 11:08:42;;;;;;;6.50;3.38;;;24.30;70.50;;;;;;4928736;27;20565;-70
2021/09/10 11:11:09;;;;;;;6.47;3.05;;;25.00;67.50;;;;;;5068507;28;20140;-70
2021/09/10 11:13:40;;;;;;;7.40;3.33;;;25.30;66.60;;;;;;5069909;28;20131;-70
2021/09/10 11:16:10;;;;;;;5.78;2.80;;;25.60;65.40;;;;;;5069073;28;20054;-72
2021/09/10 11:18:37;;;;;;;5.43;2.47;;;25.90;64.60;;;;;;4985725;28;89240;-70
2021/09/10 11:21:05;;;;;;;7.22;2.42;;;26.00;63.80;;;;;;5086623;28;20076;-71
2021/09/10 11:24:09;;;;;;;4.72;2.70;;;26.00;64.00;;;;;;5133828;27;20353;-60
2021/09/10 11:29:09;;;;;;;3.72;2.45;;;25.40;64.40;;;;;;4913083;27;20851;-56
2021/09/10 11:31:35;;;;;;;5.65;2.53;;;25.00;66.00;;;;;;5072753;28;20080;-55
2021/09/10 11:34:02;;;;;;;9.90;2.80;;;24.80;66.80;;;;;;4994522;28;20060;-61
2021/09/10 11:36:29;;;;;;;5.47;2.55;;;24.70;67.10;;;;;;5069799;28;20067;-61
2021/09/10 11:39:07;;;;;;;3.08;2.30;;;24.70;66.90;;;;;;5054023;28;20076;-62
2021/09/10 11:41:35;;;;;;;7.72;2.47;;;24.60;67.00;;;;;;5070385;28;20131;-55
2021/09/10 11:44:06;;;;;;;4.55;3.80;;;24.60;67.20;;;;;;5070497;28;20110;-54
2021/09/10 11:46:33;;;;;;;3.22;2.40;;;24.40;67.30;;;;;;5071380;28;20084;-51
2021/09/10 11:49:00;;;;;;;4.10;2.25;;;24.40;67.00;;;;;;5069861;28;20081;-52
2021/09/10 11:51:46;;;;;;;4.60;3.15;;;24.30;67.10;;;;;;5069504;28;20124;-55
2021/09/10 11:54:18;;;;;;;5.43;2.72;;;24.20;68.00;;;;;;5071034;28;20540;-56
2021/09/10 11:56:46;;;;;;;7.72;3.08;;;24.10;68.40;;;;;;5070300;28;20045;-53
2021/09/10 11:59:20;;;;;;;4.18;2.40;;;24.00;68.70;;;;;;5070578;28;20128;-53
2021/09/10 12:01:47;;;;;;;4.22;2.50;;;24.00;68.90;;;;;;5070203;28;20099;-52
2021/09/10 12:04:27;;;;;;;5.32;2.70;;;24.00;68.90;;;;;;5054175;28;20056;-48
2021/09/10 12:06:58;;;;;;;3.95;2.38;;;24.00;69.00;;;;;;5070883;28;20144;-57
2021/09/10 12:09:38;;;;;;;5.95;2.55;;;24.00;69.00;;;;;;5069597;28;20055;-55
2021/09/10 12:12:06;;;;;;;3.50;2.58;;;24.00;69.00;;;;;;5070511;28;20126;-50
2021/09/10 12:14:52;;;;;;;3.58;2.88;;;24.00;68.90;;;;;;5071096;28;20060;-53
2021/09/10 12:17:25;;;;;;;4.82;2.80;;;24.00;68.70;;;;;;5070603;28;20048;-55
2021/09/10 12:19:57;;;;;;;3.40;2.45;;;24.00;68.70;;;;;;5070159;28;20122;-49
2021/09/10 12:22:36;;;;;;;3.85;2.28;;;24.00;68.70;;;;;;5068662;28;20542;-53
2021/09/10 12:25:22;;;;;;;4.53;2.10;;;24.00;68.70;;;;;;5070630;28;20482;-55
2021/09/10 12:28:07;;;;;;;6.03;2.78;;;24.00;68.70;;;;;;5069794;28;20164;-52
2021/09/10 12:30:46;;;;;;;3.42;2.60;;;24.00;68.80;;;;;;5070783;28;20080;-53
2021/09/10 12:33:23;;;;;;;4.32;2.50;;;24.10;68.60;;;;;;5070784;28;20379;-51
2021/09/10 12:35:54;;;;;;;4.53;2.40;;;24.00;68.50;;;;;;5061399;28;20128;-51
2021/09/10 12:38:23;;;;;;;5.10;2.50;;;24.00;68.60;;;;;;5062434;28;20190;-53
2021/09/10 12:40:51;;;;;;;3.50;2.50;;;24.00;68.70;;;;;;5056637;28;20124;-51
2021/09/10 12:43:19;;;;;;;5.65;2.85;;;24.00;68.70;;;;;;5055828;28;20495;-51
2021/09/10 12:45:46;;;;;;;6.65;2.60;;;24.00;68.70;;;;;;5057266;28;20060;-46
2021/09/10 12:48:13;;;;;;;5.22;3.22;;;24.00;68.80;;;;;;5055799;28;20045;-53
2021/09/10 12:50:40;;;;;;;4.15;2.65;;;24.00;68.80;;;;;;5056960;28;20084;-53
2021/09/10 12:53:07;;;;;;;2.90;2.10;;;24.00;68.80;;;;;;5056356;28;20049;-49
2021/09/10 12:55:35;;;;;;;4.43;2.78;;;24.00;68.60;;;;;;5055874;28;20045;-53
2021/09/10 12:58:02;;;;;;;4.50;2.35;;;24.00;68.60;;;;;;5056374;28;20140;-48
2021/09/10 13:00:29;;;;;;;5.90;2.65;;;24.00;68.60;;;;;;5057000;28;20128;-48
2021/09/10 13:02:56;;;;;;;4.30;2.72;;;24.00;68.70;;;;;;5055602;28;20053;-53
2021/09/10 13:05:23;;;;;;;5.75;2.60;;;24.00;68.70;;;;;;5056221;28;20060;-53
2021/09/10 13:07:50;;;;;;;5.65;2.40;;;24.00;68.60;;;;;;5056379;28;20075;-60
2021/09/10 13:10:17;;;;;;;2.92;2.35;;;24.00;68.60;;;;;;5015220;28;20132;-61
2021/09/10 13:12:44;;;;;;;3.63;2.35;;;24.10;68.50;;;;;;5056328;28;20131;-56
2021/09/10 13:15:11;;;;;;;3.08;2.35;;;24.20;68.30;;;;;;5055892;28;20083;-56
2021/09/10 13:17:37;;;;;;;4.20;2.42;;;24.20;68.00;;;;;;5056284;28;20103;-57
2021/09/10 13:20:05;;;;;;;4.88;2.67;;;24.30;67.50;;;;;;5055990;28;20444;-58
2021/09/10 13:22:32;;;;;;;4.97;2.83;;;24.40;67.10;;;;;;5055746;28;20380;-53
2021/09/10 13:24:58;;;;;;;4.57;2.58;;;24.30;67.20;;;;;;5056572;28;20095;-56
2021/09/10 13:27:25;;;;;;;3.72;2.63;;;24.20;67.60;;;;;;5061699;28;20390;-51
2021/09/10 13:29:52;;;;;;;4.15;2.70;;;24.20;67.80;;;;;;5075144;28;20044;-57
2021/09/10 13:32:19;;;;;;;5.40;2.75;;;24.20;67.80;;;;;;5075926;28;20526;-55
2021/09/10 13:34:46;;;;;;;4.78;2.50;;;24.10;67.90;;;;;;5074631;28;20083;-59
2021/09/10 13:37:12;;;;;;;5.43;3.38;;;24.10;68.00;;;;;;5076123;28;20041;-56
2021/09/10 13:39:45;;;;;;;2.72;2.40;;;24.20;67.60;;;;;;5075948;28;20102;-53
2021/09/10 13:42:12;;;;;;;3.60;2.63;;;24.10;67.80;;;;;;5074415;28;20064;-57
2021/09/10 13:44:39;;;;;;;4.07;2.67;;;24.00;68.00;;;;;;5075946;28;20408;-56
2021/09/10 13:47:05;;;;;;;4.60;2.60;;;24.10;68.00;;;;;;5076051;28;20099;-54
2021/09/10 13:49:32;;;;;;;4.40;2.97;;;24.00;67.80;;;;;;5075070;28;20161;-53
2021/09/10 13:51:59;;;;;;;4.15;2.40;;;24.00;68.30;;;;;;5074927;28;20080;-54
2021/09/10 13:54:26;;;;;;;2.65;2.10;;;23.90;68.30;;;;;;5075490;28;20131;-50
2021/09/10 13:56:53;;;;;;;5.63;2.72;;;23.90;68.40;;;;;;5074417;28;20127;-52
2021/09/10 13:59:22;;;;;;;4.03;2.15;;;23.90;69.00;;;;;;5075827;28;20088;-53
2021/09/10 14:01:53;;;;;;;4.20;2.45;;;23.90;68.20;;;;;;5056307;28;20041;-59
2021/09/10 14:04:21;;;;;;;4.78;2.83;;;23.90;68.40;;;;;;5057958;28;20395;-53
2021/09/10 14:06:47;;;;;;;4.32;2.33;;;24.10;67.90;;;;;;5054742;28;20555;-56
2021/09/10 14:09:15;;;;;;;3.97;2.42;;;24.50;67.10;;;;;;5054318;28;20077;-54
2021/09/10 14:11:42;;;;;;;3.60;2.42;;;24.70;66.20;;;;;;5054745;28;20049;-57
2021/09/10 14:14:10;;;;;;;3.33;2.25;;;24.70;65.70;;;;;;5055401;28;20049;-51
2021/09/10 14:16:37;;;;;;;3.42;2.60;;;24.50;66.70;;;;;;5054599;28;20420;-52
2021/09/10 14:19:04;;;;;;;3.75;2.60;;;24.50;66.50;;;;;;5054760;28;20416;-55
2021/09/10 14:21:31;;;;;;;3.78;2.35;;;24.60;66.20;;;;;;5053900;28;20487;-47
2021/09/10 14:23:58;;;;;;;3.72;2.53;;;24.80;66.30;;;;;;5055485;28;20049;-56
2021/09/10 14:26:25;;;;;;;3.15;2.30;;;25.10;65.20;;;;;;4967868;28;20051;-56
2021/09/10 15:19:37;;;;;;;3.97;1.90;;;23.80;65.40;;;;;;5097644;27;20447;-70
2021/09/10 15:22:04;;;;;;;3.22;2.13;;;26.90;59.80;;;;;;5095264;28;20070;-72
2021/09/10 15:24:31;;;;;;;3.30;1.80;;;27.70;59.60;;;;;;5062199;28;20057;-72
2021/09/10 15:26:58;;;;;;;3.28;1.73;;;28.30;58.80;;;;;;5039285;28;170476;-71
2021/09/10 15:29:25;;;;;;;3.28;1.80;;;28.10;55.80;;;;;;5075428;28;20074;-71
2021/09/10 15:31:51;;;;;;;4.70;1.83;;;27.70;57.50;;;;;;5075474;28;20541;-71
2021/09/10 15:34:18;;;;;;;3.03;1.67;;;28.50;57.10;;;;;;5072753;28;20075;-70
2021/09/10 15:36:45;;;;;;;3.30;1.80;;;28.90;54.90;;;;;;5069132;28;20129;-71
2021/09/10 15:39:12;;;;;;;3.25;1.77;;;29.30;54.00;;;;;;5076375;28;20526;-70
2021/09/10 15:41:42;;;;;;;2.72;1.30;;;28.30;54.80;;;;;;5075107;28;20265;-70
2021/09/10 15:44:10;;;;;;;7.15;1.90;;;27.30;56.10;;;;;;5076522;28;20927;-70
2021/09/10 15:46:37;;;;;;;2.25;1.33;;;26.60;57.30;;;;;;5075697;28;20052;-69
2021/09/10 15:49:04;;;;;;;2.28;1.73;;;26.00;59.10;;;;;;5058968;28;20051;-70
2021/09/10 15:51:30;;;;;;;2.63;1.58;;;25.60;59.80;;;;;;5072858;28;20076;-70
2021/09/10 15:53:57;;;;;;;2.95;1.65;;;25.90;59.90;;;;;;5042366;28;20527;-70
2021/09/10 15:56:25;;;;;;;5.20;1.88;;;27.30;58.30;;;;;;5055424;28;20168;-70
2021/09/10 15:58:52;;;;;;;3.97;1.95;;;27.90;56.40;;;;;;5048666;28;20140;-70
2021/09/10 16:01:21;;;;;;;4.05;1.60;;;27.30;55.70;;;;;;5043996;28;20053;-70
2021/09/10 16:03:49;;;;;;;2.92;1.40;;;26.50;56.90;;;;;;5048237;28;20064;-71
2021/09/10 16:06:17;;;;;;;3.60;1.90;;;26.00;59.10;;;;;;5048477;28;20042;-70
2021/09/10 16:08:44;;;;;;;6.95;2.33;;;26.20;58.70;;;;;;5053754;28;20088;-71
2021/09/10 16:11:10;;;;;;;5.30;1.83;;;25.90;59.80;;;;;;5043586;28;20049;-69
2021/09/10 16:13:37;;;;;;;6.68;1.70;;;25.40;61.00;;;;;;5050455;28;20425;-70
2021/09/10 16:16:04;;;;;;;6.95;1.83;;;24.80;62.20;;;;;;5045354;28;20136;-70
2021/09/10 16:18:31;;;;;;;4.82;1.90;;;24.20;63.20;;;;;;5051139;28;20136;-70
2021/09/10 16:20:57;;;;;;;5.15;2.17;;;23.80;64.40;;;;;;5043364;28;20124;-70
2021/09/10 16:23:24;;;;;;;3.45;1.90;;;23.60;65.60;;;;;;5054897;28;20091;-70
2021/09/10 16:25:51;;;;;;;5.38;1.80;;;23.50;65.80;;;;;;5051883;28;20071;-70
2021/09/10 16:28:21;;;;;;;5.53;1.83;;;24.50;64.60;;;;;;5053748;28;20078;-70
2021/09/10 16:30:49;;;;;;;3.90;1.48;;;25.10;62.60;;;;;;5034420;28;20131;-69
2021/09/10 16:33:16;;;;;;;2.67;1.88;;;25.90;59.70;;;;;;5023792;28;20552;-69
2021/09/10 16:35:43;;;;;;;4.00;1.65;;;25.00;61.10;;;;;;5033790;28;20137;-70
2021/09/10 16:38:09;;;;;;;3.05;1.65;;;24.50;62.90;;;;;;5020731;28;20093;-71
2021/09/10 16:40:37;;;;;;;6.72;2.40;;;24.00;62.70;;;;;;5021255;28;20144;-69
2021/09/10 16:43:04;;;;;;;4.40;1.67;;;23.50;64.20;;;;;;5041788;28;20148;-69
2021/09/10 16:45:30;;;;;;;2.67;1.90;;;23.00;65.70;;;;;;5021942;28;20057;-70
2021/09/10 16:47:57;;;;;;;2.92;1.67;;;22.70;66.50;;;;;;5047558;28;20068;-70
2021/09/10 16:50:25;;;;;;;3.80;1.80;;;22.50;67.30;;;;;;5038396;28;20124;-70
2021/09/10 16:52:52;;;;;;;4.07;2.17;;;22.30;68.30;;;;;;5038226;28;20084;-70
2021/09/10 16:55:18;;;;;;;3.53;1.92;;;22.10;68.60;;;;;;5036617;28;20587;-71
2021/09/10 16:57:45;;;;;;;5.15;2.03;;;22.10;69.30;;;;;;5037978;28;20053;-70
2021/09/10 17:00:12;;;;;;;3.92;2.67;;;22.10;69.20;;;;;;5040634;28;20077;-70
2021/09/10 17:02:39;;;;;;;5.50;2.10;;;22.00;69.30;;;;;;5042882;28;20048;-70
2021/09/10 17:05:09;;;;;;;4.72;2.25;;;21.90;70.00;;;;;;5043093;28;20091;-69
2021/09/10 17:07:36;;;;;;;4.65;2.00;;;21.80;69.70;;;;;;5040919;28;20049;-68
2021/09/10 17:10:06;;;;;;;6.85;2.30;;;21.70;69.80;;;;;;5029939;28;20404;-70
2021/09/10 17:12:34;;;;;;;6.18;2.38;;;21.70;70.10;;;;;;5035830;28;20049;-70
2021/09/10 17:15:00;;;;;;;4.97;1.85;;;21.60;70.10;;;;;;5040806;28;20132;-69
2021/09/10 17:17:27;;;;;;;5.53;2.17;;;21.60;70.20;;;;;;5035656;28;20378;-70
2021/09/10 17:19:57;;;;;;;3.47;1.60;;;21.60;70.30;;;;;;5042209;28;20080;-69
2021/09/10 17:22:26;;;;;;;6.55;1.83;;;21.60;70.50;;;;;;5041621;28;20076;-70
2021/09/10 17:24:53;;;;;;;4.15;2.08;;;21.50;71.20;;;;;;5038979;28;20085;-70
2021/09/10 17:27:20;;;;;;;4.80;2.53;;;21.40;71.40;;;;;;5029194;28;20512;-69
2021/09/10 17:29:47;;;;;;;3.92;2.15;;;21.30;71.70;;;;;;5033832;28;20148;-69
2021/09/10 17:32:13;;;;;;;4.47;2.53;;;21.20;71.90;;;;;;5035608;28;20148;-70
2021/09/10 17:34:40;;;;;;;3.05;1.95;;;21.20;72.90;;;;;;5035969;28;21108;-70
2021/09/10 17:37:07;;;;;;;4.00;1.75;;;21.00;73.00;;;;;;5028442;28;20045;-70
2021/09/10 17:39:34;;;;;;;3.65;1.95;;;21.00;73.20;;;;;;5021438;28;20163;-70
2021/09/10 17:42:01;;;;;;;5.15;2.20;;;20.90;73.70;;;;;;5038702;28;20157;-70
2021/09/10 17:44:30;;;;;;;2.67;1.50;;;20.90;73.40;;;;;;5033676;28;20658;-70
2021/09/10 17:46:57;;;;;;;5.90;2.13;;;20.90;73.30;;;;;;5029769;28;20060;-70
2021/09/10 17:49:24;;;;;;;6.75;1.92;;;20.90;73.40;;;;;;5027669;28;20433;-69
2021/09/10 17:51:51;;;;;;;2.38;1.40;;;21.00;73.10;;;;;;5038111;28;20516;-69
2021/09/10 17:54:18;;;;;;;2.88;1.50;;;21.00;73.10;;;;;;5034068;28;20211;-70
2021/09/10 17:56:45;;;;;;;3.53;1.85;;;20.80;73.20;;;;;;5037736;28;20133;-69
2021/09/10 17:59:11;;;;;;;5.80;2.05;;;20.80;73.80;;;;;;5039238;28;20079;-69
2021/09/10 18:01:38;;;;;;;5.03;1.80;;;20.70;74.00;;;;;;5039485;28;20561;-68
2021/09/10 18:04:06;;;;;;;4.38;1.55;;;20.70;74.90;;;;;;5036741;28;20601;-69
2021/09/10 18:06:33;;;;;;;2.63;1.73;;;20.60;75.40;;;;;;5035902;28;20075;-69
2021/09/10 18:08:59;;;;;;;3.13;1.90;;;20.50;75.50;;;;;;5038177;28;20112;-69
2021/09/10 18:11:26;;;;;;;4.45;2.08;;;20.50;75.20;;;;;;5037640;28;20052;-69
2021/09/10 18:13:53;;;;;;;3.92;1.50;;;20.50;75.50;;;;;;5033158;28;20137;-69
2021/09/10 18:16:20;;;;;;;4.13;2.20;;;20.50;75.80;;;;;;5034967;28;20140;-69
2021/09/10 18:18:46;;;;;;;5.53;1.55;;;20.40;76.00;;;;;;5031314;28;20808;-70
2021/09/10 18:21:13;;;;;;;3.38;1.80;;;20.40;75.90;;;;;;5040051;28;20076;-69
2021/09/10 18:23:40;;;;;;;3.13;1.83;;;20.30;75.90;;;;;;5037014;28;20476;-70
2021/09/10 18:26:07;;;;;;;5.20;1.92;;;20.30;76.70;;;;;;5033353;28;20504;-70
2021/09/10 18:28:33;;;;;;;4.38;2.20;;;20.30;76.60;;;;;;5033015;28;20536;-70
2021/09/10 18:31:00;;;;;;;2.38;1.83;;;20.30;76.70;;;;;;5035746;28;20410;-70
2021/09/10 18:33:31;;;;;;;5.10;2.30;;;20.30;76.40;;;;;;5039962;28;20048;-69
2021/09/10 18:35:58;;;;;;;5.07;3.08;;;20.30;76.40;;;;;;5040592;28;20092;-69
2021/09/10 18:38:25;;;;;;;6.88;3.22;;;20.20;76.60;;;;;;5022514;28;20157;-70
2021/09/10 18:40:52;;;;;;;5.18;2.47;;;20.20;77.30;;;;;;5032139;28;20138;-70
2021/09/10 18:43:18;;;;;;;6.78;2.72;;;20.20;77.20;;;;;;5039483;28;20155;-71
2021/09/10 18:45:45;;;;;;;4.25;2.67;;;20.10;77.40;;;;;;5039156;28;20136;-70
2021/09/10 18:48:12;;;;;;;4.90;2.13;;;20.00;77.60;;;;;;5032782;28;20115;-70
2021/09/10 18:50:39;;;;;;;6.25;2.25;;;20.00;77.70;;;;;;5036131;28;20140;-68
2021/09/10 18:53:06;;;;;;;5.70;2.72;;;19.90;77.90;;;;;;5038370;28;20144;-70
2021/09/10 18:55:34;;;;;;;3.25;1.92;;;19.90;78.00;;;;;;5040413;28;20964;-70
2021/09/10 18:58:02;;;;;;;7.80;2.38;;;19.90;78.30;;;;;;5039556;28;20122;-70
2021/09/10 19:00:29;;;;;;;4.75;2.58;;;19.90;78.10;;;;;;5033697;28;20087;-69
2021/09/10 19:02:56;;;;;;;6.32;2.08;;;19.90;77.80;;;;;;5032859;28;20114;-70
2021/09/10 19:05:23;;;;;;;6.35;2.55;;;19.90;78.10;;;;;;5029399;28;20136;-69
2021/09/10 19:07:51;;;;;;;9.57;3.50;;;19.90;78.10;;;;;;5037987;28;20107;-70
2021/09/10 19:10:17;;;;;;;6.15;2.50;;;19.90;78.50;;;;;;5032634;28;20131;-69
2021/09/10 19:12:44;;;;;;;5.82;2.38;;;19.90;78.10;;;;;;5031348;28;20536;-70
2021/09/10 19:15:11;;;;;;;7.78;3.80;;;19.80;78.10;;;;;;5038282;28;20136;-69
2021/09/10 19:17:38;;;;;;;4.93;2.92;;;19.90;78.30;;;;;;5032802;28;20128;-70
2021/09/10 19:20:06;;;;;;;7.32;2.85;;;19.90;78.40;;;;;;5040014;28;20711;-70
2021/09/10 19:22:32;;;;;;;6.40;2.97;;;19.90;78.70;;;;;;5031846;28;20500;-70
2021/09/10 19:24:59;;;;;;;7.13;3.30;;;19.80;79.30;;;;;;5036780;28;20140;-69
2021/09/10 19:27:26;;;;;;;5.78;3.42;;;19.80;79.60;;;;;;5024893;28;20053;-70
2021/09/10 19:29:53;;;;;;;6.25;3.13;;;19.80;80.10;;;;;;5026391;28;20067;-69
2021/09/10 19:32:19;;;;;;;5.43;2.22;;;19.70;80.90;;;;;;5021433;28;20046;-70
2021/09/10 19:34:46;;;;;;;7.20;2.88;;;19.50;81.90;;;;;;5038138;28;20061;-70
2021/09/10 19:37:13;;;;;;;5.40;2.72;;;19.50;81.70;;;;;;5027628;28;20132;-70
2021/09/10 19:39:40;;;;;;;6.88;2.78;;;19.40;82.50;;;;;;5027337;28;20505;-70
2021/09/10 19:42:08;;;;;;;5.82;2.75;;;19.30;82.90;;;;;;5030719;28;20498;-70
2021/09/10 19:44:36;;;;;;;8.88;2.80;;;19.30;83.60;;;;;;5032661;28;20057;-70
2021/09/10 19:47:04;;;;;;;6.35;3.15;;;19.20;83.90;;;;;;5033220;28;20091;-70
2021/09/10 19:49:30;;;;;;;6.60;3.25;;;19.20;84.20;;;;;;5024569;28;20680;-70
2021/09/10 19:51:57;;;;;;;6.18;3.40;;;19.10;85.30;;;;;;5033984;28;20261;-69
2021/09/10 19:54:24;;;;;;;5.90;3.42;;;19.00;85.50;;;;;;5035551;28;20508;-69
2021/09/10 19:56:51;;;;;;;5.82;2.60;;;19.00;85.20;;;;;;5033161;28;20045;-69
2021/09/10 19:59:18;;;;;;;6.20;3.00;;;19.00;85.40;;;;;;5018559;28;20716;-68
2021/09/10 20:01:45;;;;;;;5.47;3.03;;;19.00;86.30;;;;;;5033975;28;20572;-69
2021/09/10 20:04:12;;;;;;;7.03;3.03;;;18.90;85.90;;;;;;5036783;28;20050;-69
2021/09/10 20:06:39;;;;;;;4.40;3.38;;;18.90;85.70;;;;;;5030886;28;20136;-69
2021/09/10 20:09:06;;;;;;;8.00;2.50;;;18.80;86.70;;;;;;5023442;28;20053;-68
2021/09/10 20:11:32;;;;;;;6.45;3.28;;;18.80;85.80;;;;;;5014070;28;20049;-70
2021/09/10 20:13:59;;;;;;;6.40;3.08;;;18.90;86.70;;;;;;5031914;28;20095;-70
2021/09/10 20:16:26;;;;;;;7.85;3.42;;;18.90;85.90;;;;;;5025217;28;20087;-70
2021/09/10 20:18:53;;;;;;;9.80;3.70;;;18.90;86.10;;;;;;5027407;28;20061;-70
2021/09/10 20:21:20;;;;;;;5.65;3.00;;;18.90;86.60;;;;;;5043304;28;20053;-70
2021/09/10 20:23:47;;;;;;;8.75;3.13;;;18.90;86.20;;;;;;5039824;28;20112;-69
2021/09/10 20:26:14;;;;;;;7.82;2.90;;;18.90;86.10;;;;;;5034082;28;20472;-70
2021/09/10 20:28:41;;;;;;;5.78;3.53;;;18.90;86.90;;;;;;5030876;28;20091;-70
2021/09/10 20:31:09;;;;;;;6.25;3.85;;;18.90;87.70;;;;;;5035554;28;20521;-70
2021/09/10 20:33:36;;;;;;;4.72;3.03;;;18.80;87.90;;;;;;5028083;28;20080;-70
2021/09/10 20:36:03;;;;;;;5.80;3.03;;;18.80;88.70;;;;;;5029452;28;20543;-69
2021/09/10 20:38:29;;;;;;;7.53;3.30;;;18.70;88.70;;;;;;5042644;28;20495;-70
2021/09/10 20:40:56;;;;;;;5.82;3.17;;;18.70;89.10;;;;;;5041320;28;20498;-69
2021/09/10 20:43:24;;;;;;;7.47;4.22;;;18.70;88.50;;;;;;5039380;28;20769;-69
2021/09/10 20:45:50;;;;;;;8.20;3.33;;;18.70;88.90;;;;;;5034310;28;20050;-70
2021/09/10 20:48:17;;;;;;;7.00;3.70;;;18.60;89.10;;;;;;5029132;28;20469;-69
2021/09/10 20:50:44;;;;;;;6.70;3.85;;;18.60;89.40;;;;;;5040874;28;20467;-70
2021/09/10 20:53:11;;;;;;;6.55;3.75;;;18.60;89.10;;;;;;5038554;28;20136;-68
2021/09/10 20:55:37;;;;;;;6.00;3.63;;;18.60;89.50;;;;;;5041387;28;20127;-69
2021/09/10 20:58:04;;;;;;;8.38;4.07;;;18.60;89.30;;;;;;5029745;28;20141;-70
2021/09/10 21:00:31;;;;;;;7.05;3.53;;;18.50;89.20;;;;;;5030981;28;20580;-70
2021/09/10 21:02:58;;;;;;;6.13;4.03;;;18.60;89.40;;;;;;5041717;28;20360;-70
2021/09/10 21:05:26;;;;;;;8.95;4.65;;;18.60;89.90;;;;;;5034548;28;20081;-69
2021/09/10 21:07:52;;;;;;;6.90;4.50;;;18.60;89.60;;;;;;5029800;28;20087;-70
2021/09/10 21:10:19;;;;;;;6.80;4.07;;;18.60;89.40;;;;;;5042115;28;20057;-70
2021/09/10 21:12:46;;;;;;;6.78;4.63;;;18.60;88.80;;;;;;5041699;28;20140;-70
2021/09/10 21:15:13;;;;;;;10.68;4.00;;;18.60;88.50;;;;;;5041668;28;20069;-70
2021/09/10 21:17:40;;;;;;;6.47;4.63;;;18.60;89.10;;;;;;5041261;28;20132;-70
2021/09/10 21:20:07;;;;;;;8.57;4.47;;;18.60;89.20;;;;;;5039570;28;20049;-70
2021/09/10 21:22:34;;;;;;;7.35;4.35;;;18.60;88.80;;;;;;5036757;28;20536;-69
2021/09/10 21:25:01;;;;;;;9.77;4.50;;;18.60;88.80;;;;;;5036027;28;20505;-70
2021/09/10 21:27:28;;;;;;;9.45;4.95;;;18.60;88.70;;;;;;5036046;28;20125;-70
2021/09/10 21:29:56;;;;;;;8.73;4.72;;;18.60;88.60;;;;;;5035473;28;20766;-70
2021/09/10 21:32:24;;;;;;;8.57;5.13;;;18.60;89.10;;;;;;5038769;28;20041;-69
2021/09/10 21:34:51;;;;;;;11.73;4.85;;;18.50;88.70;;;;;;5039822;28;20195;-70
2021/09/10 21:37:18;;;;;;;6.93;4.47;;;18.60;89.20;;;;;;5040069;28;20155;-70
2021/09/10 21:39:45;;;;;;;8.57;5.20;;;18.50;88.80;;;;;;5041534;28;20582;-70
2021/09/10 21:42:12;;;;;;;9.38;6.00;;;18.50;88.80;;;;;;5037081;28;20594;-69
2021/09/10 21:44:38;;;;;;;9.07;5.32;;;18.60;88.80;;;;;;5041307;28;20096;-69
2021/09/10 21:47:05;;;;;;;8.45;5.13;;;18.60;88.60;;;;;;5039686;28;20053;-70
2021/09/10 21:49:32;;;;;;;11.40;5.55;;;18.60;88.70;;;;;;5039552;28;20125;-70
2021/09/10 21:51:59;;;;;;;9.20;5.30;;;18.50;89.10;;;;;;5037337;28;20735;-70
2021/09/10 21:54:26;;;;;;;7.22;5.13;;;18.50;88.90;;;;;;5037434;28;20658;-70
2021/09/10 21:56:52;;;;;;;7.70;4.82;;;18.50;89.00;;;;;;5022698;28;20142;-69
2021/09/10 21:59:19;;;;;;;6.85;4.70;;;18.50;89.00;;;;;;5025860;28;20049;-70
2021/09/10 22:01:48;;;;;;;11.70;5.43;;;18.50;88.90;;;;;;5025901;28;20136;-69
2021/09/10 22:04:16;;;;;;;8.80;5.28;;;18.50;89.10;;;;;;5027383;28;20072;-70
2021/09/10 22:06:43;;;;;;;8.13;5.22;;;18.50;88.90;;;;;;5038741;28;20103;-70
2021/09/10 22:09:10;;;;;;;8.68;4.85;;;18.60;88.80;;;;;;5024917;28;20079;-70
2021/09/10 22:11:36;;;;;;;10.50;4.90;;;18.50;88.80;;;;;;5026508;28;20168;-70
2021/09/10 22:14:03;;;;;;;6.93;4.68;;;18.60;88.70;;;;;;5024724;28;20052;-70
2021/09/10 22:16:31;;;;;;;11.15;4.20;;;18.60;88.90;;;;;;5023046;28;20064;-70
2021/09/10 22:18:58;;;;;;;6.80;4.95;;;18.50;88.70;;;;;;5020296;28;20053;-70
2021/09/10 22:21:24;;;;;;;7.47;4.68;;;18.60;88.50;;;;;;5022048;28;20049;-69
2021/09/10 22:23:51;;;;;;;9.45;5.00;;;18.60;88.70;;;;;;5025227;28;20896;-69
2021/09/10 22:26:18;;;;;;;8.40;4.85;;;18.60;88.80;;;;;;5023062;28;20111;-69
2021/09/10 22:28:45;;;;;;;8.57;4.20;;;18.50;89.20;;;;;;5024982;28;20081;-69